LEPA/PMI METAR and TAF weather

Enter ICAO airport designator
Station Type Date Time Source
LEPA METAR 2019/04/18 22:00 UTC NOAA

LEPA 182200Z 07010KT 9999 OVC019 17/12 Q1016 NOSIG


Station Type Date Time Source
LEPA Decoded METAR 2019/04/18 22:00 UTC NOAA

Palma De Mallorca / Son San Juan, Spain (LEPA) 39-33N 002-44E 8M
Apr 18, 2019 - 06:00 PM EDT / 2019.04.18 2200 UTC
Wind: from the ENE (070 degrees) at 12 MPH (10 KT):0
Visibility: greater than 7 mile(s):0
Sky conditions: overcast
Temperature: 62 F (17 C)
Dew Point: 53 F (12 C)
Relative Humidity: 72%
Pressure (altimeter): 30.00 in. Hg (1016 hPa)
ob: LEPA 182200Z 07010KT 9999 OVC019 17/12 Q1016 NOSIG
cycle: 22

Station Type Date Time Source
LEPA TAF 2019/04/18 18:27 UTC NOAA

TAF LEPA 181700Z 1818/1918 08015KT 9999 FEW020 TX21/1912Z TN13/1906Z
TEMPO 1818/1820 07015G25KT
BECMG 1819/1821 06010KT
BECMG 1905/1907 07016KT
TEMPO 1910/1918 08020G30KT

Example: see airport list